Urb Valles de Yabucoa, Puerto Rico
Current Conditions -  °F | °C
As of 4:05 AM on Saturday 29 Nov 2014 (Local Time) from TJNR Reporting Station
Overcast Overcast  
Wind Chill: 75°   Ceiling: 1800
Heat Index: 75°   Visibility: 10mi
Dew Point: 75°   Wind: 0mph
Humidity: 100%   Direction: NA
Pressure: 29.93"   Gusts: NA
Location:  18.0547°N, 65.8738°W
Report Text: TJNR 290805Z AUTO 00000KT 10SM BKN018 OVC048 24/24 A2993 RMK AO2 T02390239 $
Loading
Personal Weather Stations






























Interactive Weather Map New forecast layout! Learn more

10-Day Weather Forecast

Advertisements
Track Severe Weather on mobile